Time;durP1;ratioP1;P1;durP2;ratioP2;P2;SDS_P1;SDS_P2;PMS_P1;PMS_P2;Temp;Humidity;BMP_temperature;BMP_pressure;BME280_temperature;BME280_humidity;BME280_pressure;Samples;Min_cycle;Max_cycle;Signal;HPM_P1;HPM_P2
2020/12/01 00:00:19;;;;;;;90.85;39.53;;;;;;;-2.80;81.50;101050.29;1826153;78;25669;-51
2020/12/01 00:02:48;;;;;;;99.77;41.98;;;;;;;-2.80;81.44;101052.94;1821176;78;25758;-50
2020/12/01 00:05:19;;;;;;;95.77;41.60;;;;;;;-2.82;81.53;101046.00;1826128;78;25759;-51
2020/12/01 00:07:46;;;;;;;97.30;42.15;;;;;;;-2.80;81.59;101046.31;1826080;78;25799;-52
2020/12/01 00:10:15;;;;;;;98.80;44.05;;;;;;;-2.80;81.63;101048.45;1825861;78;25743;-51
2020/12/01 00:12:44;;;;;;;102.80;42.62;;;;;;;-2.77;81.70;101046.73;1826097;78;25926;-51
2020/12/01 00:15:16;;;;;;;99.80;41.37;;;;;;;-2.76;81.76;101045.69;1826186;78;25756;-52
2020/12/01 00:17:44;;;;;;;109.05;43.83;;;;;;;-2.75;81.80;101036.74;1825465;78;25728;-52
2020/12/01 00:20:14;;;;;;;89.30;40.10;;;;;;;-2.72;81.82;101046.94;1826102;78;26674;-51
2020/12/01 00:22:41;;;;;;;90.97;40.35;;;;;;;-2.71;81.80;101046.42;1826286;78;25980;-51
2020/12/01 00:25:09;;;;;;;96.67;38.95;;;;;;;-2.68;81.87;101040.20;1826044;78;25692;-51
2020/12/01 00:27:37;;;;;;;89.13;37.73;;;;;;;-2.65;81.91;101037.67;1825992;78;26233;-50
2020/12/01 00:30:12;;;;;;;92.95;42.03;;;;;;;-2.67;81.98;101041.84;1824552;78;25842;-52
2020/12/01 00:32:39;;;;;;;86.72;39.08;;;;;;;-2.63;82.03;101044.38;1823532;78;26161;-50
2020/12/01 00:35:10;;;;;;;87.78;41.73;;;;;;;-2.61;82.07;101053.45;1823759;78;25845;-51
2020/12/01 00:37:38;;;;;;;83.27;39.10;;;;;;;-2.57;82.14;101048.56;1823882;78;26103;-50
2020/12/01 00:40:07;;;;;;;88.22;39.78;;;;;;;-2.56;82.14;101049.69;1823726;78;25892;-52
2020/12/01 00:42:34;;;;;;;95.95;39.03;;;;;;;-2.54;82.35;101047.64;1823857;78;25801;-53
2020/12/01 00:45:02;;;;;;;91.63;40.43;;;;;;;-2.51;82.22;101042.46;1823756;78;25889;-51
2020/12/01 00:47:28;;;;;;;83.97;37.70;;;;;;;-2.47;82.31;101048.97;1823603;78;26097;-51
2020/12/01 00:49:55;;;;;;;88.97;38.58;;;;;;;-2.44;82.42;101041.95;1823696;78;25634;-51
2020/12/01 00:52:22;;;;;;;101.90;42.15;;;;;;;-2.39;82.49;101044.80;1823628;78;25672;-52
2020/12/01 00:54:49;;;;;;;100.95;42.33;;;;;;;-2.34;82.55;101039.70;1823660;78;25636;-51
2020/12/01 00:57:16;;;;;;;87.78;37.67;;;;;;;-2.28;82.55;101036.77;1823653;78;26401;-54
2020/12/01 00:59:43;;;;;;;93.37;40.40;;;;;;;-2.24;82.76;101039.81;1823502;78;25803;-51
2020/12/01 01:02:09;;;;;;;91.90;40.50;;;;;;;-2.21;82.47;101041.54;1823557;78;25775;-52
2020/12/01 01:04:36;;;;;;;90.12;40.28;;;;;;;-2.18;82.43;101036.32;1823571;78;25705;-50
2020/12/01 01:07:03;;;;;;;93.97;40.38;;;;;;;-2.15;82.32;101040.70;1823657;78;25681;-54
2020/12/01 01:09:30;;;;;;;91.37;40.28;;;;;;;-2.13;82.24;101037.36;1823624;78;26150;-51
2020/12/01 01:11:57;;;;;;;85.90;39.40;;;;;;;-2.12;82.19;101029.69;1823462;78;25884;-51
2020/12/01 01:14:24;;;;;;;98.07;41.60;;;;;;;-2.12;82.18;101035.51;1823552;78;25636;-52
2020/12/01 01:16:50;;;;;;;88.72;39.30;;;;;;;-2.07;82.33;101035.70;1823666;78;25770;-53
2020/12/01 01:19:17;;;;;;;88.70;40.30;;;;;;;-2.05;82.28;101033.66;1823761;78;25641;-50
2020/12/01 01:21:46;;;;;;;93.72;42.05;;;;;;;-2.02;82.26;101029.78;1823556;78;25899;-50
2020/12/01 01:24:17;;;;;;;67.78;29.32;;;;;;;-2.00;82.26;101029.87;1823647;78;25630;-55
2020/12/01 01:26:53;;;;;;;91.02;39.40;;;;;;;-1.97;82.25;101033.96;1823575;78;25683;-48
2020/12/01 01:29:22;;;;;;;98.82;41.42;;;;;;;-1.93;82.38;101037.29;1823783;78;25660;-51
2020/12/01 01:31:53;;;;;;;89.70;40.43;;;;;;;-1.88;82.41;101030.85;1826075;78;25767;-50
2020/12/01 01:34:21;;;;;;;99.15;42.43;;;;;;;-1.84;82.31;101031.25;1826050;78;25762;-55
2020/12/01 01:36:48;;;;;;;98.15;40.17;;;;;;;-1.82;82.27;101025.25;1825827;78;25765;-51
2020/12/01 01:39:15;;;;;;;85.07;39.53;;;;;;;-1.82;82.23;101027.06;1825886;78;25693;-51
2020/12/01 01:41:42;;;;;;;96.30;41.50;;;;;;;-1.79;82.26;101024.80;1825664;78;25629;-49
2020/12/01 01:44:29;;;;;;;99.85;41.65;;;;;;;-1.79;82.10;101021.34;1825897;78;25719;-48
2020/12/01 01:47:21;;;;;;;90.72;42.38;;;;;;;-1.77;82.15;101018.80;1826064;78;25698;-49
2020/12/01 01:49:59;;;;;;;100.40;41.77;;;;;;;-1.74;82.11;101014.91;1825471;78;25876;-48
2020/12/01 01:52:35;;;;;;;85.67;39.13;;;;;;;-1.74;82.12;101011.77;1826115;78;25782;-47
2020/12/01 01:55:13;;;;;;;99.17;41.58;;;;;;;-1.74;82.03;101009.11;1826241;78;25705;-46
2020/12/01 01:57:44;;;;;;;99.70;43.05;;;;;;;-1.75;82.04;101008.80;1826135;78;25970;-50
2020/12/01 02:00:27;;;;;;;92.25;41.23;;;;;;;-1.74;82.15;101004.30;1826279;78;25705;-50
2020/12/01 02:02:45;;;;;;;96.02;41.90;;;;;;;-1.72;82.12;101002.23;1823722;78;25798;-46
2020/12/01 02:05:11;;;;;;;92.12;40.30;;;;;;;-1.73;82.16;100994.80;1826223;78;26300;-48
2020/12/01 02:07:38;;;;;;;88.07;39.00;;;;;;;-1.68;82.15;100994.18;1826104;78;26033;-47
2020/12/01 02:10:05;;;;;;;93.90;41.00;;;;;;;-1.70;82.08;101003.67;1826249;78;25637;-48
2020/12/01 02:12:32;;;;;;;92.40;40.98;;;;;;;-1.69;82.09;101004.48;1826073;78;26400;-50
2020/12/01 02:15:06;;;;;;;102.35;44.13;;;;;;;-1.68;82.13;101005.31;1826175;78;26325;-50
2020/12/01 02:17:37;;;;;;;90.17;39.90;;;;;;;-1.71;82.11;100999.37;1826208;78;26200;-48
2020/12/01 02:20:15;;;;;;;97.88;40.85;;;;;;;-1.73;82.14;101003.28;1826179;78;25707;-51
2020/12/01 02:22:51;;;;;;;89.25;39.90;;;;;;;-1.72;82.23;101004.89;1826252;78;25699;-50
2020/12/01 02:25:20;;;;;;;89.87;40.88;;;;;;;-1.71;82.35;101004.69;1821256;78;26037;-48
2020/12/01 02:27:56;;;;;;;94.50;40.88;;;;;;;-1.69;82.42;100996.52;1826365;78;25736;-49
2020/12/01 02:30:24;;;;;;;94.28;40.45;;;;;;;-1.67;82.48;101005.08;1826058;78;26256;-47
2020/12/01 02:32:51;;;;;;;98.40;42.90;;;;;;;-1.67;82.54;100993.14;1825985;78;26326;-51
2020/12/01 02:35:18;;;;;;;88.90;41.02;;;;;;;-1.66;82.54;100989.48;1826218;78;25713;-51
2020/12/01 02:37:47;;;;;;;91.65;39.30;;;;;;;-1.65;82.60;100990.28;1826223;78;26145;-51
2020/12/01 02:40:17;;;;;;;92.17;37.98;;;;;;;-1.65;82.80;100992.44;1826246;78;25584;-50
2020/12/01 02:42:48;;;;;;;100.87;41.77;;;;;;;-1.66;82.68;100992.13;1826124;78;25644;-50
2020/12/01 02:45:14;;;;;;;89.42;38.50;;;;;;;-1.65;82.75;100992.44;1825791;78;25684;-48
2020/12/01 02:47:42;;;;;;;96.65;39.80;;;;;;;-1.63;83.07;100997.02;1826240;78;25601;-52
2020/12/01 02:50:11;;;;;;;100.53;40.92;;;;;;;-1.64;82.96;100991.92;1826097;78;27305;-51
2020/12/01 02:52:38;;;;;;;68.33;28.93;;;;;;;-1.63;83.02;100989.58;1826246;78;25632;-48
2020/12/01 02:55:05;;;;;;;96.02;40.70;;;;;;;-1.59;83.14;100993.42;1826077;78;26242;-50
2020/12/01 02:57:32;;;;;;;102.17;41.92;;;;;;;-1.57;83.10;100992.17;1826041;78;25691;-46
2020/12/01 02:59:59;;;;;;;96.35;41.40;;;;;;;-1.55;83.23;100986.17;1826158;78;25676;-46
2020/12/01 03:02:25;;;;;;;108.63;42.80;;;;;;;-1.50;83.27;100986.84;1826119;78;25796;-51
2020/12/01 03:04:52;;;;;;;96.78;41.40;;;;;;;-1.47;83.24;100986.95;1825987;78;26260;-47
2020/12/01 03:07:19;;;;;;;102.85;40.12;;;;;;;-1.45;83.19;100985.70;1826047;78;25848;-49
2020/12/01 03:09:46;;;;;;;100.12;42.17;;;;;;;-1.42;83.17;100979.97;1825937;78;25736;-50
2020/12/01 03:12:14;;;;;;;100.25;41.58;;;;;;;-1.40;83.15;100981.89;1826008;78;25617;-49
2020/12/01 03:14:41;;;;;;;102.95;42.40;;;;;;;-1.41;83.12;100981.61;1825954;78;27058;-48
2020/12/01 03:17:07;;;;;;;110.83;46.00;;;;;;;-1.39;83.26;100976.89;1825967;78;25767;-48
2020/12/01 03:19:34;;;;;;;98.95;41.55;;;;;;;-1.39;83.29;100988.03;1826006;78;25721;-48
2020/12/01 03:22:01;;;;;;;99.60;40.70;;;;;;;-1.41;83.20;100980.28;1825993;78;25657;-49
2020/12/01 03:24:29;;;;;;;97.02;42.13;;;;;;;-1.40;83.17;100983.73;1826196;78;25671;-51
2020/12/01 03:26:55;;;;;;;105.43;43.52;;;;;;;-1.41;83.43;100986.91;1825969;78;26158;-51
2020/12/01 03:29:22;;;;;;;89.85;40.65;;;;;;;-1.41;83.38;100984.26;1825928;78;25700;-47
2020/12/01 03:31:49;;;;;;;99.03;41.73;;;;;;;-1.40;83.63;100989.85;1825894;78;25737;-51
2020/12/01 03:34:15;;;;;;;99.10;40.63;;;;;;;-1.38;83.59;100990.48;1826042;78;25640;-49
2020/12/01 03:36:44;;;;;;;100.82;41.00;;;;;;;-1.37;83.73;100988.63;1826006;78;25764;-50
2020/12/01 03:39:12;;;;;;;98.40;40.92;;;;;;;-1.35;83.69;100987.89;1826228;78;27306;-51
2020/12/01 03:41:41;;;;;;;100.02;41.58;;;;;;;-1.34;83.64;100980.25;1826192;78;25700;-49
2020/12/01 03:44:08;;;;;;;97.60;43.17;;;;;;;-1.32;83.66;100980.84;1826030;78;26207;-48
2020/12/01 03:46:35;;;;;;;97.88;42.90;;;;;;;-1.28;83.69;100983.88;1826009;78;25743;-50
2020/12/01 03:49:02;;;;;;;92.53;40.35;;;;;;;-1.26;83.62;100993.77;1826121;78;25761;-49
2020/12/01 03:51:28;;;;;;;88.03;39.00;;;;;;;-1.27;83.66;100976.23;1826010;78;25704;-50
2020/12/01 03:53:57;;;;;;;96.00;40.52;;;;;;;-1.27;83.67;100977.55;1826087;78;25741;-49
2020/12/01 03:56:26;;;;;;;98.00;40.83;;;;;;;-1.28;83.78;100978.57;1826014;78;25712;-51
2020/12/01 03:58:52;;;;;;;91.30;39.10;;;;;;;-1.28;83.73;100982.55;1825964;78;26087;-49
2020/12/01 04:01:19;;;;;;;103.15;40.98;;;;;;;-1.27;83.66;100982.86;1826162;78;25707;-48
2020/12/01 04:03:46;;;;;;;93.25;41.55;;;;;;;-1.29;83.71;100982.23;1826086;78;26373;-49
2020/12/01 04:06:13;;;;;;;98.00;40.88;;;;;;;-1.32;83.65;100978.98;1825961;78;25688;-55
2020/12/01 04:08:39;;;;;;;95.10;41.58;;;;;;;-1.32;83.61;100980.31;1825953;78;25655;-47
2020/12/01 04:11:06;;;;;;;94.35;40.48;;;;;;;-1.33;83.62;100983.19;1825985;78;25860;-48
2020/12/01 04:13:34;;;;;;;91.57;40.45;;;;;;;-1.35;83.51;100981.26;1798173;78;25717;-50
2020/12/01 04:16:01;;;;;;;98.95;41.65;;;;;;;-1.37;83.53;100980.67;1826006;78;26934;-51
2020/12/01 04:18:28;;;;;;;97.82;43.02;;;;;;;-1.39;83.51;100970.78;1825910;78;25658;-48
2020/12/01 04:20:55;;;;;;;101.75;43.92;;;;;;;-1.38;83.48;100973.72;1826019;78;25688;-49
2020/12/01 04:23:22;;;;;;;101.90;41.60;;;;;;;-1.40;83.32;100971.80;1825922;78;25733;-50
2020/12/01 04:25:50;;;;;;;92.27;39.73;;;;;;;-1.41;83.44;100976.82;1826030;78;25793;-51
2020/12/01 04:28:17;;;;;;;98.97;41.37;;;;;;;-1.45;83.38;100971.63;1826041;78;26163;-48
2020/12/01 04:30:43;;;;;;;95.25;40.45;;;;;;;-1.49;83.48;100975.21;1825900;78;25669;-51
2020/12/01 04:33:10;;;;;;;94.80;39.67;;;;;;;-1.53;83.30;100979.33;1825842;78;25610;-50
2020/12/01 04:35:38;;;;;;;91.97;42.03;;;;;;;-1.57;83.49;100970.95;1826083;78;25630;-49
2020/12/01 04:38:06;;;;;;;100.90;41.33;;;;;;;-1.60;83.24;100974.55;1826024;78;25544;-51
2020/12/01 04:40:38;;;;;;;95.72;40.08;;;;;;;-1.62;83.28;100979.25;1826042;78;27344;-50
2020/12/01 04:43:12;;;;;;;105.92;43.08;;;;;;;-1.65;83.40;100970.38;1825915;78;25633;-51
2020/12/01 04:45:42;;;;;;;100.05;41.58;;;;;;;-1.67;83.67;100971.11;1826086;78;25636;-55
2020/12/01 04:48:36;;;;;;;94.42;39.95;;;;;;;-1.72;83.35;100971.25;1825735;78;25649;-51
2020/12/01 04:51:22;;;;;;;111.68;44.77;;;;;;;-1.76;83.42;100977.98;1825743;78;25772;-51
2020/12/01 04:54:15;;;;;;;98.33;42.88;;;;;;;-1.78;83.41;100975.25;1825566;78;26333;-51
2020/12/01 04:57:25;;;;;;;84.60;38.85;;;;;;;-1.83;83.48;100965.78;1825991;78;25650;-51
2020/12/01 05:00:20;;;;;;;96.45;41.65;;;;;;;-1.89;83.66;100966.92;1826079;78;26119;-53
2020/12/01 05:03:30;;;;;;;96.32;40.08;;;;;;;-1.90;83.51;100962.63;1825923;78;25791;-53
2020/12/01 05:06:10;;;;;;;93.37;39.80;;;;;;;-1.94;83.70;100961.92;1826144;78;25624;-52
2020/12/01 05:08:39;;;;;;;98.00;39.80;;;;;;;-1.97;83.84;100961.05;1825944;78;26155;-50
2020/12/01 05:11:14;;;;;;;97.90;40.67;;;;;;;-1.98;83.81;100958.08;1825950;78;25676;-51
2020/12/01 05:13:41;;;;;;;99.55;42.70;;;;;;;-2.01;83.88;100961.97;1825597;78;25727;-52
2020/12/01 05:16:36;;;;;;;95.53;42.03;;;;;;;-2.02;83.93;100953.70;1826000;78;25727;-53
2020/12/01 05:19:03;;;;;;;93.55;42.13;;;;;;;-2.01;83.94;100957.16;1826059;78;25615;-52
2020/12/01 05:21:29;;;;;;;100.75;42.58;;;;;;;-2.04;83.83;100955.76;1825942;78;26243;-51
2020/12/01 05:23:56;;;;;;;94.87;40.25;;;;;;;-2.02;83.97;100958.20;1825903;78;25676;-51
2020/12/01 05:26:23;;;;;;;94.85;41.88;;;;;;;-2.05;84.03;100954.12;1826025;78;26081;-50
2020/12/01 05:28:56;;;;;;;92.17;39.85;;;;;;;-2.06;83.99;100955.13;1825965;78;25637;-54
2020/12/01 05:31:40;;;;;;;105.67;42.13;;;;;;;-2.07;83.89;100956.17;1825899;78;25753;-51
2020/12/01 05:34:13;;;;;;;92.25;40.55;;;;;;;-2.08;84.02;100959.34;1826099;78;26736;-53
2020/12/01 05:36:39;;;;;;;93.05;42.48;;;;;;;-2.10;83.99;100961.36;1825030;78;25622;-49
2020/12/01 05:39:17;;;;;;;103.47;45.17;;;;;;;-2.12;84.07;100955.46;1825982;78;25687;-53
2020/12/01 05:41:49;;;;;;;90.72;39.60;;;;;;;-2.13;84.07;100959.64;1824620;78;26246;-51
2020/12/01 05:44:20;;;;;;;97.67;42.30;;;;;;;-2.16;84.04;100954.75;1822076;78;26352;-54
2020/12/01 05:47:10;;;;;;;93.80;41.68;;;;;;;-2.18;83.95;100959.45;1826113;78;26308;-54
2020/12/01 05:49:42;;;;;;;88.20;39.98;;;;;;;-2.20;84.14;100962.83;1825970;78;25712;-51
2020/12/01 05:52:24;;;;;;;97.47;41.10;;;;;;;-2.22;84.19;100959.06;1825704;78;25653;-52
2020/12/01 05:55:19;;;;;;;93.50;40.90;;;;;;;-2.21;84.09;100956.72;1798624;78;25713;-52
2020/12/01 05:58:02;;;;;;;88.82;38.65;;;;;;;-2.22;84.02;100959.58;1826147;78;25751;-51
2020/12/01 06:00:33;;;;;;;96.30;41.85;;;;;;;-2.23;83.91;100963.23;1786408;80;26750;-52
2020/12/01 06:03:23;;;;;;;97.45;41.88;;;;;;;-2.25;83.94;100960.80;1762761;81;25626;-52
2020/12/01 06:05:58;;;;;;;87.55;39.08;;;;;;;-2.27;83.86;100962.84;1747601;81;25761;-52
2020/12/01 06:08:38;;;;;;;86.25;38.02;;;;;;;-2.31;83.98;100965.09;1762818;81;25618;-54
2020/12/01 06:11:35;;;;;;;90.55;39.65;;;;;;;-2.31;83.90;100966.94;1762187;81;26472;-51
2020/12/01 06:14:07;;;;;;;87.50;39.48;;;;;;;-2.34;83.86;100964.17;1762714;81;25737;-52
2020/12/01 06:16:41;;;;;;;97.12;41.42;;;;;;;-2.35;83.81;100973.66;1759648;81;25628;-52
2020/12/01 06:19:36;;;;;;;89.28;38.15;;;;;;;-2.36;83.88;100977.34;1762943;81;25622;-52
2020/12/01 06:22:20;;;;;;;89.50;38.80;;;;;;;-2.39;83.86;100978.55;1762766;81;25764;-51
2020/12/01 06:25:08;;;;;;;84.15;37.20;;;;;;;-2.41;83.92;100982.45;1762787;81;26320;-53
2020/12/01 06:28:15;;;;;;;84.28;36.38;;;;;;;-2.44;83.86;100978.36;1762873;81;25986;-53
2020/12/01 06:31:28;;;;;;;84.92;36.80;;;;;;;-2.47;83.86;100981.41;1761842;81;25745;-52
2020/12/01 06:34:22;;;;;;;90.85;38.90;;;;;;;-2.48;83.88;100986.42;1758017;81;25742;-54
2020/12/01 06:37:12;;;;;;;94.05;40.23;;;;;;;-2.49;84.01;100992.21;1749828;81;25717;-54
2020/12/01 06:40:12;;;;;;;82.47;37.73;;;;;;;-2.48;84.08;100994.38;1764408;81;25603;-52
2020/12/01 06:42:47;;;;;;;;;;;;;;;-2.47;84.01;100999.95;1710709;83;26199;-50
2020/12/01 06:45:31;;;;;;;82.70;35.15;;;;;;;-2.47;83.97;101001.28;1684288;83;25809;-51
2020/12/01 06:48:21;;;;;;;85.73;38.77;;;;;;;-2.41;84.01;101000.99;1846670;76;31901;-51
2020/12/01 06:51:00;;;;;;;99.37;39.65;;;;;;;-2.58;83.99;100989.48;1816400;78;25763;-53
2020/12/01 06:53:35;;;;;;;66.07;28.65;;;;;;;-2.48;83.98;101000.48;1804928;78;25735;-53
2020/12/01 06:56:16;;;;;;;84.00;37.23;;;;;;;-2.45;84.01;101001.40;1822186;77;25603;-53
2020/12/01 06:58:49;;;;;;;93.67;38.95;;;;;;;-2.46;83.92;101002.41;1836254;77;25844;-53
2020/12/01 07:01:31;;;;;;;86.47;39.27;;;;;;;-2.47;83.90;101000.80;1776218;80;25853;-57
2020/12/01 07:04:06;;;;;;;83.22;38.00;;;;;;;-2.46;83.92;101006.37;1797420;79;25658;-57
2020/12/01 07:06:38;;;;;;;86.20;37.17;;;;;;;-2.45;83.99;101004.05;1768410;80;25784;-53
2020/12/01 07:09:18;;;;;;;80.77;36.10;;;;;;;-2.44;83.90;101000.36;1797061;79;25903;-55
2020/12/01 07:12:19;;;;;;;79.15;38.65;;;;;;;-2.41;83.90;101003.64;1776090;80;25672;-55
2020/12/01 07:15:03;;;;;;;75.55;35.73;;;;;;;-2.39;83.88;101001.59;1797275;79;26365;-57
2020/12/01 07:17:38;;;;;;;84.20;37.17;;;;;;;-2.35;83.94;101006.29;1776223;80;25674;-53
2020/12/01 07:20:36;;;;;;;80.83;37.30;;;;;;;-2.31;83.98;101005.36;1797354;79;25846;-56
2020/12/01 07:23:13;;;;;;;79.07;36.10;;;;;;;-2.26;84.01;101011.66;1714189;83;25708;-57
2020/12/01 07:25:54;;;;;;;87.55;38.28;;;;;;;-2.21;83.91;101012.38;1707079;82;25731;-53
2020/12/01 07:28:40;;;;;;;83.47;37.63;;;;;;;-2.18;83.85;101013.30;1690256;83;25843;-55
2020/12/01 07:31:24;;;;;;;79.05;35.70;;;;;;;-2.15;83.80;101018.16;1744140;82;25790;-56
2020/12/01 07:34:02;;;;;;;85.50;37.08;;;;;;;-2.12;83.73;101013.78;1776705;78;26871;-58
2020/12/01 07:36:46;;;;;;;88.10;37.83;;;;;;;-2.10;83.73;101017.03;1760633;80;25753;-57
2020/12/01 07:39:26;;;;;;;86.63;36.68;;;;;;;-2.01;83.81;101016.81;1734203;81;25842;-58
2020/12/01 07:42:00;;;;;;;81.42;36.70;;;;;;;-1.97;83.53;101016.72;1762182;81;25678;-58
2020/12/01 07:44:40;;;;;;;74.82;37.60;;;;;;;-1.89;83.71;101020.45;1762335;81;26315;-56
2020/12/01 07:47:18;;;;;;;89.47;38.67;;;;;;;-1.73;84.17;101018.67;1762238;81;25924;-54
2020/12/01 07:49:58;;;;;;;79.17;36.03;;;;;;;-1.55;84.10;101023.31;1762324;81;25643;-57
2020/12/01 07:52:37;;;;;;;82.45;37.65;;;;;;;-1.38;83.58;101024.98;1762377;81;26159;-58
2020/12/01 07:55:16;;;;;;;73.80;35.68;;;;;;;-1.27;83.16;101031.97;1762512;81;26286;-56
2020/12/01 07:57:42;;;;;;;90.15;37.20;;;;;;;-1.07;83.23;101030.52;1745101;81;25582;-55
2020/12/01 08:00:16;;;;;;;79.75;36.35;;;;;;;-0.87;82.89;101031.73;1762070;81;26165;-56
2020/12/01 08:02:43;;;;;;;78.97;36.20;;;;;;;-0.56;84.49;101026.92;1762066;81;25713;-57
2020/12/01 08:05:13;;;;;;;71.67;35.43;;;;;;;-0.30;83.82;101020.55;1762169;81;26341;-56
2020/12/01 08:07:39;;;;;;;;;;;;;;;-0.08;82.17;101024.94;1764748;81;26434;-56
2020/12/01 08:10:11;;;;;;;70.30;32.30;;;;;;;0.15;82.13;101025.63;1762332;81;25699;-57
2020/12/01 08:12:43;;;;;;;79.37;32.93;;;;;;;0.36;81.44;101041.66;1762164;81;26647;-53
2020/12/01 08:15:15;;;;;;;71.62;34.73;;;;;;;0.47;80.85;101020.66;1761922;81;25820;-58
2020/12/01 08:17:42;;;;;;;72.42;35.58;;;;;;;0.75;81.43;101040.08;1761422;81;25604;-54
2020/12/01 08:20:13;;;;;;;70.70;33.48;;;;;;;1.03;81.02;101043.47;1762097;81;25754;-54
2020/12/01 08:22:43;;;;;;;66.57;33.33;;;;;;;1.28;80.66;101053.97;1762172;81;25711;-53
2020/12/01 08:25:18;;;;;;;65.17;32.75;;;;;;;1.55;79.87;101057.56;1762348;81;25698;-57
2020/12/01 08:28:15;;;;;;;76.42;36.63;;;;;;;1.78;79.10;101054.09;1734130;81;25679;-57
2020/12/01 08:31:08;;;;;;;63.45;32.45;;;;;;;1.93;79.35;101054.97;1756431;80;25716;-56
2020/12/01 08:34:03;;;;;;;69.80;35.48;;;;;;;2.33;79.88;101053.41;1752674;80;25659;-58
2020/12/01 08:36:54;;;;;;;67.87;36.35;;;;;;;2.69;78.50;101056.80;1762701;81;25702;-54
2020/12/01 08:39:50;;;;;;;65.80;34.13;;;;;;;2.94;76.53;101055.95;1762831;81;26430;-54
2020/12/01 08:42:25;;;;;;;71.50;35.35;;;;;;;3.11;76.05;101053.31;1762807;81;25627;-55
2020/12/01 08:45:15;;;;;;;72.90;35.10;;;;;;;3.27;75.17;101061.60;1762717;81;25702;-54
2020/12/01 08:47:43;;;;;;;65.32;34.90;;;;;;;3.38;74.79;101054.05;1756731;81;25731;-55
2020/12/01 08:50:18;;;;;;;66.10;35.50;;;;;;;3.45;74.64;101059.25;1751890;81;25692;-57
2020/12/01 08:52:46;;;;;;;69.07;35.35;;;;;;;3.58;73.40;101060.80;1751893;81;25778;-56
2020/12/01 08:55:27;;;;;;;66.47;34.95;;;;;;;3.72;73.82;101066.09;1751822;81;25656;-55
2020/12/01 08:58:27;;;;;;;66.25;33.80;;;;;;;3.97;73.48;101058.98;1751634;81;25755;-55
2020/12/01 09:01:04;;;;;;;70.80;33.98;;;;;;;4.23;73.33;101058.00;1771939;79;25702;-57
2020/12/01 09:03:33;;;;;;;71.25;35.52;;;;;;;4.70;73.43;101062.05;1782364;80;25679;-59
2020/12/01 09:06:01;;;;;;;62.40;33.53;;;;;;;4.78;72.31;101063.74;1752127;81;26969;-57
2020/12/01 09:11:48;;;;;;;57.00;30.97;;;;;;;4.93;69.96;101068.47;1751776;81;26025;-56
2020/12/01 09:17:07;;;;;;;58.25;30.35;;;;;;;5.39;70.49;101066.23;1748000;82;25675;-52
2020/12/01 09:22:29;;;;;;;63.87;34.45;;;;;;;6.07;70.21;101063.00;1886417;76;34652;-55
2020/12/01 09:25:12;;;;;;;63.90;33.78;;;;;;;6.20;68.86;101067.63;1857431;77;25663;-53
2020/12/01 09:28:18;;;;;;;53.02;31.75;;;;;;;6.41;66.96;101067.22;1871428;76;34619;-54
2020/12/01 09:30:47;;;;;;;61.80;32.80;;;;;;;6.35;66.04;101058.30;1834406;77;25687;-53
2020/12/01 09:33:20;;;;;;;59.48;32.10;;;;;;;6.34;66.13;101048.09;1817232;78;25912;-54
2020/12/01 09:35:47;;;;;;;61.18;32.05;;;;;;;6.84;65.52;101049.88;1818239;78;25687;-55
2020/12/01 09:38:15;;;;;;;56.10;33.80;;;;;;;6.98;64.53;101049.38;1810553;78;25845;-54
2020/12/01 09:40:46;;;;;;;55.48;32.30;;;;;;;7.05;65.18;101049.41;1816788;78;25720;-53
2020/12/01 09:43:22;;;;;;;56.20;32.90;;;;;;;7.36;66.02;101044.05;1816493;78;25640;-54
2020/12/01 09:45:45;;;;;;;60.03;33.63;;;;;;;7.82;65.99;101048.06;1820053;78;25704;-53
2020/12/01 09:50:49;;;;;;;52.83;32.60;;;;;;;7.96;62.27;101045.60;1815685;78;34662;-55
2020/12/01 10:17:47;;;;;;;47.03;27.82;;;;;;;9.53;60.19;101042.93;1755714;81;25662;-58
2020/12/01 10:36:21;;;;;;;44.08;26.52;;;;;;;9.39;55.98;101033.85;1850984;77;25609;-55
2020/12/01 10:38:48;;;;;;;46.88;27.62;;;;;;;9.70;55.97;101029.53;1853012;76;25652;-56
2020/12/01 10:41:14;;;;;;;48.13;27.80;;;;;;;10.16;54.69;101022.28;1830537;78;25565;-53
2020/12/01 10:43:41;;;;;;;46.55;26.33;;;;;;;10.18;54.19;101020.65;1830628;78;25653;-53
2020/12/01 10:46:10;;;;;;;41.80;25.72;;;;;;;10.33;53.70;101028.61;1830638;78;25945;-56
2020/12/01 10:48:36;;;;;;;42.53;25.75;;;;;;;10.10;52.41;101030.22;1830920;78;25752;-55
2020/12/01 10:51:04;;;;;;;39.33;24.77;;;;;;;9.91;50.64;101025.55;1838684;76;26034;-57
2020/12/01 10:53:31;;;;;;;42.85;25.43;;;;;;;9.68;52.34;101024.41;1811653;76;25718;-58
2020/12/01 10:55:59;;;;;;;41.13;25.08;;;;;;;9.40;51.28;101023.33;1816788;78;25632;-56
2020/12/01 10:58:26;;;;;;;38.58;25.02;;;;;;;9.34;51.60;101026.59;1829077;78;26072;-56
2020/12/01 11:00:53;;;;;;;38.53;24.15;;;;;;;9.18;51.50;101025.64;1830591;78;25778;-58
2020/12/01 11:03:19;;;;;;;39.25;25.20;;;;;;;9.30;52.68;101028.25;1830626;78;25703;-57
2020/12/01 11:05:46;;;;;;;41.05;25.45;;;;;;;9.29;52.64;101031.23;1830402;78;25621;-58
2020/12/01 11:08:13;;;;;;;41.42;24.40;;;;;;;9.59;53.30;101027.48;1830546;78;25595;-56
2020/12/01 11:10:41;;;;;;;40.95;23.40;;;;;;;9.62;51.88;101035.54;1830494;78;25685;-57
2020/12/01 11:13:09;;;;;;;40.85;24.07;;;;;;;9.74;50.44;101044.09;1830229;78;25755;-56
2020/12/01 11:15:36;;;;;;;41.18;24.60;;;;;;;9.48;51.77;101034.88;1830549;78;25552;-57
2020/12/01 11:18:06;;;;;;;36.63;23.45;;;;;;;9.52;51.39;101034.55;1830420;78;25557;-58
2020/12/01 11:20:34;;;;;;;38.90;24.35;;;;;;;9.59;52.89;101030.17;1829728;76;25577;-55
2020/12/01 11:23:01;;;;;;;38.13;24.70;;;;;;;9.87;53.61;101035.30;1811966;76;25752;-57
2020/12/01 11:25:28;;;;;;;37.85;23.67;;;;;;;10.19;52.91;101029.03;1812125;76;25641;-56
2020/12/01 11:27:55;;;;;;;40.70;23.62;;;;;;;10.15;51.27;101031.51;1826997;78;25859;-57
2020/12/01 11:30:23;;;;;;;42.03;25.00;;;;;;;10.22;52.26;101031.96;1832288;78;25696;-56
2020/12/01 11:32:51;;;;;;;38.15;23.73;;;;;;;10.13;50.62;101026.11;1840443;77;26286;-56
2020/12/01 11:35:22;;;;;;;43.50;25.48;;;;;;;9.82;49.81;101030.50;1840166;77;25867;-56
2020/12/01 11:37:49;;;;;;;40.73;24.23;;;;;;;9.48;49.71;101028.12;1840066;77;25673;-53
2020/12/01 11:40:16;;;;;;;38.00;23.50;;;;;;;9.30;50.23;101023.41;1839570;77;25688;-56
2020/12/01 11:42:43;;;;;;;39.05;22.95;;;;;;;9.23;51.00;101018.33;1839583;77;26014;-56
2020/12/01 11:45:12;;;;;;;38.48;23.77;;;;;;;9.45;52.49;101016.53;1839701;77;25648;-56
2020/12/01 11:47:39;;;;;;;37.42;24.52;;;;;;;9.62;51.32;101020.69;1839911;77;25995;-55
2020/12/01 11:50:08;;;;;;;41.00;24.23;;;;;;;9.55;50.89;101025.06;1839433;77;25647;-52
2020/12/01 11:52:34;;;;;;;37.57;22.87;;;;;;;9.38;49.46;101020.11;1839964;77;25612;-57
2020/12/01 11:55:02;;;;;;;41.02;23.45;;;;;;;9.19;48.60;101018.61;1839469;77;25556;-54
2020/12/01 11:57:30;;;;;;;36.85;22.85;;;;;;;9.01;49.83;101025.50;1839535;77;25621;-55
2020/12/01 11:59:57;;;;;;;40.58;23.62;;;;;;;8.71;48.97;101023.24;1839586;77;27195;-54
2020/12/01 12:02:23;;;;;;;39.95;23.00;;;;;;;8.59;51.34;101025.47;1839512;77;25806;-56
2020/12/01 12:04:51;;;;;;;37.88;22.07;;;;;;;8.59;50.88;101026.27;1839667;77;25730;-58
2020/12/01 12:07:17;;;;;;;34.92;21.57;;;;;;;8.51;50.96;101022.83;1839573;77;26162;-61
2020/12/01 12:09:44;;;;;;;36.48;21.17;;;;;;;8.37;50.07;101020.42;1839646;77;25637;-57
2020/12/01 12:12:11;;;;;;;40.38;22.45;;;;;;;8.25;50.43;101028.82;1839625;77;26340;-58
2020/12/01 12:14:38;;;;;;;37.03;21.93;;;;;;;8.02;50.25;101017.58;1839586;77;25560;-56
2020/12/01 12:17:04;;;;;;;38.58;24.32;;;;;;;7.94;50.36;101022.72;1837449;77;25802;-57
2020/12/01 12:19:31;;;;;;;36.77;21.85;;;;;;;8.00;51.06;101021.09;1836052;77;25583;-58
2020/12/01 12:21:58;;;;;;;35.25;20.72;;;;;;;7.79;50.68;101024.35;1834094;78;25692;-58
2020/12/01 12:24:25;;;;;;;34.40;20.95;;;;;;;7.69;50.04;101028.95;1834008;78;26845;-58
2020/12/01 12:26:52;;;;;;;36.75;21.20;;;;;;;7.59;51.53;101025.19;1846445;77;25692;-57
2020/12/01 12:29:19;;;;;;;34.98;21.57;;;;;;;7.86;51.83;101020.03;1844374;77;26349;-61